Edinburg, Pennsylvania
Current Conditions -  °F | °C
As of 3:47 PM on Wednesday 26 Nov 2014 (Local Time) from KBVI Reporting Station
Haze Haze  
Wind Chill:   Ceiling: 500
Heat Index:   Visibility: 5mi
Dew Point:   Wind: 3mph
Humidity: 100%   Direction: 360°N
Pressure: 30.01"   Gusts: NA
Location:  41.01°N, 80.44°W
Report Text: KBVI 262047Z 36003KT 5SM BR OVC005 00/00 A3001
Loading
Personal Weather Stations






























Interactive Weather Map New forecast layout! Learn more

10-Day Weather Forecast

Advertisements
Track Severe Weather on mobile